CheckWX is a tool to help pilots better visualize weather data.  It is not intended as a substitute for an official pre-flight weather briefing.

08:42:27 UTC

LYUZ TAF
Uzice-ponikve
Uzice-ponikve
TAF COR LYUZ 060605Z 0606/0706 26004KT 8000 NSC TX06/0612Z TNM01/0606Z TEMPO 0606/0609 3000 BR BECMG 0621/0623 BKN013 TEMPO 0701/0706 3000 -RA BR BKN010

Dec-6@
06:00 UTC

Dec-6 @ 06:00 UTC

Dec-6@
21:00 UTC

Dec-6 @ 21:00 UTC

TAF COR LYUZ 060605Z 0606/0706 26004KT 8000 NSC TX06/0612Z TNM01/0606Z
Wind
  • 260° at 4 KTS
Cloud Levels
  • No significant clouds

Dec-6@
06:00 UTC

Dec-6 @ 06:00 UTC

Dec-6@
09:00 UTC

Dec-6 @ 09:00 UTC

TEMPO 0606/0609 3000 BR

Temporary

Temporary Changes expected for less than half the time period

Conditions
Mist

Dec-6@
21:00 UTC

Dec-6 @ 21:00 UTC

Dec-7@
06:00 UTC

Dec-7 @ 06:00 UTC

BECMG 0621/0623 BKN013

Becoming

Becoming Conditions expected by Fri, Dec 6, 2019 @ 23:00 UTC

Wind
  • 260° at 4 KTS
Cloud Levels
  • Broken at 1,300' AGL

Dec-7@
01:00 UTC

Dec-7 @ 01:00 UTC

Dec-7@
06:00 UTC

Dec-7 @ 06:00 UTC

TEMPO 0701/0706 3000 -RA BR BKN010

Temporary

Temporary Changes expected for less than half the time period

Conditions
Light Rain, Mist
Cloud Levels
  • Broken at 1,000' AGL